logo
Search for airport 
image banner adimage banner adimage banner ad
image banner ad

ESHR - Akersberga

Located in , Sweden

ICAO - , IATA -

Data provided by Airmate  

General information

Coordinates: N59°29'8" E18°16'18"
Elevation is 5 feet MSL.
 
View others Airports in Stockholms län

Operational data

Special qualification required
Current time UTC:
Current local time:
Weather at : ESSB - Stockholm/Bromma ( 24 km )
METAR: ESSB 200650Z 31009KT 7000 -SN SCT019 BKN035 M01/M03 Q1010
TAF: TAF ESSB 200530Z 2006/2015 36007KT 9999 -SN SCT020 BKN040
View NOTAMs / SUP AIP / TFR affecting this airport [VIEW]
Communications frequencies: [VIEW]

Runways:

Airport contact information

Address: Sweden

Satellite view of ESHR